Résultat compétition

 ESF VALBERG-BEUIL : Flèche du 06/01/2013 à 13h00   picture_as_pdf

SELECTION COQ D ARGENT-COQ DE BRONZE U10 ET U12 Manche 2

 Epreuve antérieure au 1er Décembre 2018, ne comptant plus pour le classement SkiOpen.

Ouvreur Handicap Temps Réalisé Temps Base
GRAVIER YOANN 4.00 1:03.32 1:00.88
Médaille Or Vermeil Argent Bronze Fléchette
Pourcentage 15.00% 28.00% 40.00% 45.00% 50.00%
Temps 1:10.01 1:17.92 1:25.23 1:31.32 1:34.36
Clt.  expand_more Identité Code S. An Cat Temps Pts Médaille PDF Cor.
1 MARIN CARLA FFS2652206 F 2001 POU 1:07.30 10.55 Or picture_as_pdf edit
2 BLETRY JULIEN FFS2654347 M 2001 POU 1:07.50 10.87 Or picture_as_pdf edit
3 CAVALERA MARTIN FFS2654448 M 2001 POU 1:09.47 14.11 Or picture_as_pdf edit
4 RAJAOFERA STELLAN FFS2664972 M 2004 POU 1:09.96 14.91 Or picture_as_pdf edit
5 FALICON FOLKES ARUMLEE LCN11309813 M 2003 POU 1:10.12 15.18 Vermeil
6 NOEL JULES EXT-132 M 2003 POU 1:10.25 15.39 Vermeil
7 TURCO ROMAIN FFS2639405 M 2001 POU 1:11.75 17.85 Vermeil picture_as_pdf edit
8 BONNEL VIRGILE LCN2647756 M 2002 POU 1:11.86 18.04 Vermeil
9 THOMAS ANDREA FFS2654696 M 2001 POU 1:11.87 18.05 Vermeil picture_as_pdf edit
10 BELTRAN THOMAS FFS2654687 M 2001 POU 1:11.98 18.23 Vermeil picture_as_pdf edit
11 BASTANTI GABRIEL FFS2662515 M 2001 POU 1:12.10 18.43 Vermeil picture_as_pdf edit
12 FRADIN MATTEO LCN11295240 M 2003 POU 1:12.43 18.97 Vermeil
13 BITTER VALENTIN FFS2651906 M 2001 POU 1:12.64 19.32 Vermeil picture_as_pdf edit
14 POLCHI NORICK FFS2664974 M 2004 POU 1:12.68 19.38 Vermeil picture_as_pdf edit
15 ODDO NOA LCN11295717 M 2004 POU 1:12.87 19.69 Vermeil
16 SCHWITZER LUCAS LCN11262554 M 2003 POU 1:13.55 20.81 Vermeil
17 GARIN ROBIN FFS2659455 M 2001 POU 1:14.16 21.81 Vermeil picture_as_pdf edit
18 GREYER MATTHIAS FFS2663495 M 2002 POU 1:14.52 22.40 Vermeil picture_as_pdf edit
19 BRUDNO BENJAMIN FFS2660301 M 2002 POU 1:14.79 22.85 Vermeil picture_as_pdf edit
20 LUCCHESE MATTEO FFS2647283 M 2001 POU 1:14.95 23.11 Vermeil picture_as_pdf edit
21 LACLAU AXEL FFS2656774 M 2003 POU 1:15.09 23.34 Vermeil picture_as_pdf edit
22 WAYOFF ARMAND LCN11304219 M 2003 POU 1:15.77 24.46 Vermeil
23 ROUX LISA FFS2660308 F 2001 POU 1:15.81 24.52 Vermeil picture_as_pdf edit
24 LAMASA GIORGIO LCN11262561 M 2004 POU 1:15.90 24.67 Vermeil
25 POESY MARY ENZO FFS2660307 M 2002 POU 1:16.21 25.18 Vermeil picture_as_pdf edit
26 MARSAN ALEXANDRE FFS2648023 M 2001 POU 1:16.95 26.40 Vermeil picture_as_pdf edit
27 STENWAGA ANDREA FFS2654695 M 2001 POU 1:17.07 26.59 Vermeil picture_as_pdf edit
28 ISRAEL KIMBERLY FFS2654691 F 2001 POU 1:17.85 27.87 Vermeil picture_as_pdf edit
29 MAISONIAL MATHIS EXT128397777 M 0 1:17.87 27.91 Vermeil
30 COMPORT CHIARA FFS2651947 F 2003 POU 1:18.44 28.84 Argent picture_as_pdf edit
31 MAZUEL LOLA LCN11262553 F 2003 POU 1:18.67 29.22 Argent
32 ETESSE NICOLAS LCN11303887 M 2003 POU 1:18.71 29.29 Argent
33 BETTINI TOM FFS2663191 M 2002 POU 1:18.83 29.48 Argent picture_as_pdf edit
34 ESPOSITO JORDAN FFS2668384 M 2003 POU 1:19.03 29.81 Argent picture_as_pdf edit
35 MURRIS JEREMY FFS2664461 M 2001 POU 1:19.31 30.27 Argent picture_as_pdf edit
36 ROBION THOMAS FFS2663984 M 2004 POU 1:19.53 30.63 Argent picture_as_pdf edit
37 PLOQUIN CHARLINE FFS2660547 F 2002 POU 1:19.60 30.75 Argent picture_as_pdf edit
38 BALLY CESAR FFS2657418 M 2001 POU 1:19.69 30.90 Argent picture_as_pdf edit
39 VERNIN VICTOR FFS2660310 M 2002 POU 1:20.09 31.55 Argent picture_as_pdf edit
40 DAU FABIOLA FFS F 2004 POU 1:20.25 31.82 Argent picture_as_pdf edit
41 GARIN THYLANE PC11334068 F 2004 POU 1:21.05 33.13 Argent
42 NORDLUND NIKO FFS2665866 M 2001 POU 1:21.07 33.16 Argent picture_as_pdf edit
43 BERIL HUGO LCN11298584 M 2003 POU 1:21.20 33.38 Argent
44 POESY MARY ZOE LCN11262563 F 2004 POU 1:21.37 33.66 Argent
45 GAI THOMAS LCN11287636 M 2003 POU 1:21.48 33.84 Argent
46 WODCZINSKI EMERIK LCN11286777 M 2004 POU 1:21.66 34.13 Argent
47 FULCONIS EDGAR FFS2668057 M 2004 POU 1:21.68 34.17 Argent picture_as_pdf edit
48 GEFFROY JULIEN LCN11295041 M 2004 POU 1:21.79 34.35 Argent
49 PLESSIER NICOLAS LCN11294535 M 2003 POU 1:21.87 34.48 Argent
50 MOSTEIRO PAULINE FFS2665279 F 2001 POU 1:22.34 35.25 Argent picture_as_pdf edit
51 REY HUGO FFS2664294 M 2002 POU 1:22.57 35.63 Argent picture_as_pdf edit
52 STENWAGA SOPHIA LCN11262555 F 2003 POU 1:22.71 35.86 Argent
53 MILLON TOM LCN11262562 M 2004 POU 1:23.01 36.35 Argent
54 SABATIER LEOPOLD LCN11262628 M 2003 POU 1:23.11 36.51 Argent
55 DELOURME LILOU LCN11309838 F 2003 POU 1:23.24 36.73 Argent
56 CERDAN LOLITA FFS2665227 F 2003 POU 1:23.30 36.83 Argent picture_as_pdf edit
57 CECCHINI PABLO FFS2663496 M 2002 POU 1:23.37 36.94 Argent picture_as_pdf edit
58 PEYTHIEU THOMAS EXT128397776 M 0 1:23.59 37.30 Argent
59 TAURET BRIAND LOUIS LCN11374618 M 2003 POU 1:23.60 37.32 Argent
60 FENOLL MATTEO FFS2660304 M 2002 POU 1:23.77 37.60 Argent picture_as_pdf edit
61 MERAT Louca FFS2669053 M 2002 POU 1:24.40 38.63 Argent picture_as_pdf edit
62 GENETTI GIORGIO FFS2668753 M 2002 POU 1:24.71 39.14 Argent picture_as_pdf edit
63 MOSTEIRO CLEMENT LCN11283520 M 2003 POU 1:24.97 39.57 Argent
64 DELEUZE NICOLAS FFS2662709 M 2002 POU 1:25.04 39.68 Argent picture_as_pdf edit
65 LECCIA LENA FFS2662174 F 2003 POU 1:25.17 39.90 Argent picture_as_pdf edit
66 ASTRAUDO ELISA FFS2665228 F 2003 POU 1:25.27 40.06 Bronze picture_as_pdf edit
67 GILLE EWAN FFS2653415 M 2002 POU 1:25.68 40.74 Bronze picture_as_pdf edit
68 BITTER JADE LCN11294937 F 2004 POU 1:25.74 40.83 Bronze
69 KOHLHUBER FLORIAN FFS2653411 M 2001 POU 1:26.00 41.26 Bronze picture_as_pdf edit
70 LEVRAY BRIAC FFS2662597 M 2002 POU 1:26.20 41.59 Bronze picture_as_pdf edit
71 BEHE TIMEO FFS2659237 M 2002 POU 1:26.33 41.80 Bronze picture_as_pdf edit
72 BRUN LUNA FFS2663403 F 2002 POU 1:26.54 42.15 Bronze picture_as_pdf edit
73 DE LA CHAPELLE HECTOR LCN11262559 M 2003 POU 1:27.76 44.15 Bronze
74 CUTAJAR LUCAS FFS2658108 M 2001 POU 1:28.14 44.78 Bronze picture_as_pdf edit
75 DELOURME LLUNA LCN11381476 F 2003 POU 1:29.07 46.30 Bronze
76 TEISSEIRE LOU LCN11313748 F 2004 POU 1:29.82 47.54 Bronze
77 BROERSMA SWAEN FFS2657991 M 2001 POU 1:30.12 48.03 Bronze picture_as_pdf edit
78 GIULIAN THOMAS FFS2667018 M 2003 POU 1:30.30 48.32 Bronze picture_as_pdf edit
79 PRUD HOMME MARIE LCN11312556 F 2003 POU 1:30.54 48.72 Bronze
80 BAUDIN DORIAN LCN11262557 M 2003 POU 1:30.79 49.13 Bronze
81 JANER LEO FFS2660523 M 2002 POU 1:31.26 49.90 Bronze picture_as_pdf edit
82 SANTONI MARGOT FFS2667020 F 2002 POU 1:32.53 51.99 Fléchette picture_as_pdf edit
83 VAN EVERDINGEN DYLAN LCN11342763 M 2004 POU 1:32.63 52.15 Fléchette
84 HEILMANN ENOLA FFS2667021 F 2003 POU 1:33.70 53.91 Fléchette picture_as_pdf edit
85 GAGGIOLI AMELIA LCN11220959 F 2004 POU 1:34.29 54.88 Fléchette
86 VINCENT EMMA FFS2666405 F 2003 POU 1:37.30 59.82 picture_as_pdf edit
87 CHRISSOKERAKIS CLARA FFS2664645 F 2002 POU 1:38.20 61.30 picture_as_pdf edit
88 RADET Diane LCN11361717 F 2003 POU 1:39.79 63.91
89 MEREU LEO LCNPC11384635 M 2004 POU 1:40.45 65.00
90 COSSO HOEDT NICOLAS FFS2667375 M 2002 POU 1:41.42 66.59 picture_as_pdf edit
DEWAET MARGOT FFS2660299 F 2002 POU ABD picture_as_pdf edit
PICCININI ENZO LCN11277786 M 2004 POU ABD
PAOLI LUCA LCN11262627 M 2003 POU ABD
SUCHET CLOTHILDE LCN11262556 F 2003 POU ABD
PALMERO PIERRE ANTOINE FFS2662430 M 2003 POU ABD picture_as_pdf edit
BOSON ALICE FFS2656388 F 2001 POU ABD picture_as_pdf edit
MULLER VICTOR FFS2660920 M 2001 POU ABD picture_as_pdf edit
BELHACENE SAMY FFS2660300 M 2002 POU ABD picture_as_pdf edit
ALBERT VINCENT FFS2663415 M 2002 POU ABD picture_as_pdf edit
COLLOT JULES LCN1125314 M 2003 POU ABD
BRASSEUR SOPHIE FFS2652281 F 2002 POU DSQ picture_as_pdf edit
ESPECHE MATHILDE FFS2651615 F 2002 POU DSQ picture_as_pdf edit
NEGRI GIULIA FFS2660948 F 2001 POU DSQ picture_as_pdf edit
NARODITZKY AXEL LCN11305743 M 2003 POU ABS
FIORUCCI GASPARD FFS2652672 M 2003 POU ABS picture_as_pdf edit
BRUN MAEL FFS2667977 M 2004 POU ABS picture_as_pdf edit
BERTINCOURT ELI FFS2639933 M 2001 POU ABS picture_as_pdf edit
DELAUNAY LOUISE FFS2663925 F 2001 POU ABS picture_as_pdf edit
DELAUNAY ALICE FFS2663924 F 2001 POU ABS picture_as_pdf edit
HALLIFAX MARIE LCN11322008 F 2003 POU ABS